โตเกียว, ประเทศญี่ปุ่น

01:36 PM JST วัน ธันวาคม 19, 2014 (GMT +0900)
Tokyo (Haneda) International | Change Station
CLOSE
Current Station
Airport
Location: Tokyo,
Elevation: 26 ft
Nearby Weather Stations

Elev 26 ft 35.55 °N, 139.78 °E | Updated 36 minutes ago

Partly Cloudy
มีเมฆคลุมเป็นส่วนๆ
46 ฟาเรนไฮน์
Feels Like 42 ฟาเรนไฮน์
N
8
ลม ความผันแปร ลม from ทางทิศตะวันออก

วันนี้
High -- | Low -- ฟาเรนไฮน์
--% Chance of Precip.
Yesterday
High -- | Low -- ฟาเรนไฮน์
Precip. -- นิ้ว
6:45 AM 4:30 PM
เดือนเสี้ยว, 10% visible
ความดัน 30.39 นิ้ว
ทัศนวิสัย 6.2 ไมล์
เมฆ Few 3000 ft
ลมหนาว 42 ฟาเรนไฮน์
อุณหภูมิที่อากาศอาจจับตัวเป็นหยาดน้ำค้าง 23 ฟาเรนไฮน์
ความชื้น 40%
Rainfall 0.00 นิ้ว
Snow Depth Not available.
UV 2 out of 12
Pollen Not available.
Air Quality Not available.
Flu Activity Not available.
METAR RJTT 190400Z 09007KT 9999 FEW030 08/M05 Q1029 NOSIG RMK 1CU030 A3040

More Conditions Fewer Conditions

ความดัน 30.39 นิ้ว
ทัศนวิสัย 6.2 ไมล์
เมฆ Few 3000 ft
ลมหนาว 42 ฟาเรนไฮน์
อุณหภูมิที่อากาศอาจจับตัวเป็นหยาดน้ำค้าง 23 ฟาเรนไฮน์
ความชื้น 40%
Rainfall 0.00 นิ้ว
Snow Depth Not available.
UV 2 out of 12
Pollen Not available.
Air Quality Not available.
Flu Activity Not available.
METAR RJTT 190400Z 09007KT 9999 FEW030 08/M05 Q1029 NOSIG RMK 1CU030 A3040

More Conditions Fewer Conditions

10-Day Weather Forecast

Almanac

ดาราศาสตร์

Dec. 19, 2014 Rise Set
Actual Time
Civil Twilight
Nautical Twilight
Astronomical Twilight
Moon
Length Of Visible Light
ความยาวของวัน
Tomorrow will be .
, % of the Moon is Illuminated

Today's Extremes

Country Highs Country Lows

Community

WunderPhotos

Upload Photos

1,778,963 photos uploaded!

WunderBlogs® & News

Nearby

Air Quality

  Air Quality AQ Index Pollutant
Not available.

Snow Depth

Station Depth Elevation

Earthquake Activity

City Distance Mag. Time & Date
Minimum magnitude displayed is 2.5.

Coastal Water Temperatures

สถานที่ อุณหภูมิ

Nearby Weather Stations